Time;durP1;ratioP1;P1;durP2;ratioP2;P2;SDS_P1;SDS_P2;PMS_P1;PMS_P2;Temp;Humidity;BMP_temperature;BMP_pressure;BME280_temperature;BME280_humidity;BME280_pressure;Samples;Min_cycle;Max_cycle;Signal;HPM_P1;HPM_P2
2022/04/15 00:01:49;;;;;;;11.70;11.30;;;12.80;99.90;;;;;;5088746;28;20288;-80
2022/04/15 00:04:18;;;;;;;11.97;11.57;;;12.70;99.90;;;;;;5084873;28;20275;-80
2022/04/15 00:06:46;;;;;;;11.90;11.50;;;12.70;99.90;;;;;;5091545;28;20297;-80
2022/04/15 00:09:14;;;;;;;11.70;11.30;;;12.70;99.90;;;;;;5089678;28;20237;-81
2022/04/15 00:11:41;;;;;;;11.87;11.47;;;12.70;99.90;;;;;;5084849;28;20666;-80
2022/04/15 00:14:09;;;;;;;11.70;11.30;;;12.60;99.90;;;;;;5082346;28;20257;-81
2022/04/15 00:16:36;;;;;;;11.70;11.30;;;12.60;99.90;;;;;;5082003;28;20256;-81
2022/04/15 00:19:04;;;;;;;11.73;11.33;;;12.60;99.90;;;;;;5082017;28;20218;-81
2022/04/15 00:21:33;;;;;;;11.77;11.37;;;12.60;99.90;;;;;;5081577;28;20234;-81
2022/04/15 00:24:01;;;;;;;11.90;11.50;;;12.60;99.90;;;;;;5093855;28;20214;-80
2022/04/15 00:26:28;;;;;;;11.73;11.33;;;12.60;99.90;;;;;;5099512;28;20222;-80
2022/04/15 00:28:57;;;;;;;11.80;11.40;;;12.60;99.90;;;;;;5099462;28;20218;-80
2022/04/15 00:31:25;;;;;;;11.83;11.43;;;12.60;99.90;;;;;;5086114;28;20238;-81
2022/04/15 00:33:53;;;;;;;11.70;11.30;;;12.70;99.90;;;;;;5082574;28;20241;-81
2022/04/15 00:36:20;;;;;;;11.67;11.27;;;12.80;99.90;;;;;;5081235;28;20256;-80
2022/04/15 00:38:49;;;;;;;11.87;11.47;;;12.80;99.90;;;;;;5080827;28;20227;-80
2022/04/15 00:41:17;;;;;;;11.97;11.57;;;12.90;99.90;;;;;;5081891;28;20292;-81
2022/04/15 00:43:45;;;;;;;11.77;11.37;;;12.90;99.90;;;;;;5073081;28;20264;-81
2022/04/15 00:46:13;;;;;;;11.90;11.50;;;12.90;99.90;;;;;;5094025;28;20277;-81
2022/04/15 00:48:40;;;;;;;11.70;11.30;;;12.90;99.90;;;;;;5099711;28;20226;-81
2022/04/15 00:51:09;;;;;;;11.70;11.30;;;13.00;99.90;;;;;;5088520;28;20234;-81
2022/04/15 00:53:41;;;;;;;11.90;11.50;;;13.00;99.90;;;;;;5080656;28;20234;-81
2022/04/15 00:56:13;;;;;;;11.70;11.30;;;13.00;99.90;;;;;;5080488;28;20238;-81
2022/04/15 00:58:42;;;;;;;11.70;11.30;;;13.00;99.90;;;;;;5079988;28;20222;-80
2022/04/15 01:01:10;;;;;;;11.80;11.40;;;13.00;99.90;;;;;;5080404;28;20245;-81
2022/04/15 01:03:38;;;;;;;12.00;11.60;;;13.00;99.90;;;;;;5081370;28;20230;-80
2022/04/15 01:06:08;;;;;;;11.83;11.43;;;13.00;99.90;;;;;;5080509;28;20229;-80
2022/04/15 01:08:40;;;;;;;11.47;11.07;;;13.00;99.90;;;;;;5080687;28;20219;-81
2022/04/15 01:11:12;;;;;;;11.77;11.37;;;13.00;99.90;;;;;;5087931;28;20222;-80
2022/04/15 01:13:41;;;;;;;11.60;11.20;;;13.00;99.90;;;;;;5081018;28;20296;-80
2022/04/15 01:16:10;;;;;;;11.47;11.07;;;12.90;99.90;;;;;;5080671;28;20304;-80
2022/04/15 01:18:39;;;;;;;11.80;11.40;;;12.90;99.90;;;;;;5080548;28;20227;-81
2022/04/15 01:21:08;;;;;;;11.57;11.17;;;12.80;99.90;;;;;;5080659;28;20241;-80
2022/04/15 01:23:40;;;;;;;11.70;11.30;;;12.60;99.90;;;;;;5092185;28;20226;-80
2022/04/15 01:26:08;;;;;;;11.70;11.30;;;12.50;99.90;;;;;;5092944;28;20256;-80
2022/04/15 01:28:36;;;;;;;11.27;10.87;;;12.50;99.90;;;;;;5091229;28;20214;-79
2022/04/15 01:31:03;;;;;;;11.60;11.20;;;12.50;99.90;;;;;;5091559;28;20238;-80
2022/04/15 01:33:31;;;;;;;11.70;11.30;;;12.50;99.90;;;;;;5093264;28;20230;-79
2022/04/15 01:35:58;;;;;;;11.80;11.40;;;12.40;99.90;;;;;;5093423;28;20272;-80
2022/04/15 01:38:27;;;;;;;11.90;11.50;;;12.40;99.90;;;;;;5092487;28;20210;-80
2022/04/15 01:40:56;;;;;;;11.67;11.27;;;12.30;99.90;;;;;;5090738;28;20242;-80
2022/04/15 01:43:24;;;;;;;11.50;11.10;;;12.20;99.90;;;;;;5090535;28;20229;-80
2022/04/15 01:45:52;;;;;;;11.70;11.30;;;12.20;99.90;;;;;;5090645;28;20238;-79
2022/04/15 01:48:19;;;;;;;11.87;11.47;;;12.10;99.90;;;;;;5091528;28;20214;-79
2022/04/15 01:50:47;;;;;;;11.90;11.50;;;12.10;99.90;;;;;;5091033;28;20226;-80
2022/04/15 01:53:15;;;;;;;11.90;11.50;;;12.10;99.90;;;;;;5092489;28;20264;-79
2022/04/15 01:55:43;;;;;;;11.70;11.30;;;12.10;99.90;;;;;;5089814;28;20226;-80
2022/04/15 01:58:12;;;;;;;11.63;11.23;;;12.00;99.90;;;;;;5087529;28;20262;-80
2022/04/15 02:00:40;;;;;;;11.87;11.47;;;12.00;99.90;;;;;;5088131;28;20253;-79
2022/04/15 02:03:07;;;;;;;11.50;11.10;;;12.10;99.90;;;;;;5088334;28;20226;-80
2022/04/15 02:05:35;;;;;;;11.50;11.10;;;12.10;99.90;;;;;;5086184;28;20214;-79
2022/04/15 02:08:03;;;;;;;11.70;11.30;;;12.00;99.90;;;;;;5086584;28;20285;-80
2022/04/15 02:10:31;;;;;;;11.60;11.20;;;12.00;99.90;;;;;;5086113;28;20248;-80
2022/04/15 02:12:59;;;;;;;11.63;11.23;;;12.00;99.90;;;;;;5084724;28;20292;-79
2022/04/15 02:15:28;;;;;;;11.40;11.00;;;12.00;99.90;;;;;;5093256;28;20252;-79
2022/04/15 02:17:56;;;;;;;11.57;11.17;;;11.90;99.90;;;;;;5092943;28;20235;-80
2022/04/15 02:20:24;;;;;;;11.80;11.40;;;11.90;99.90;;;;;;5084932;28;20245;-80
2022/04/15 02:22:54;;;;;;;11.77;11.37;;;11.90;99.90;;;;;;5084567;28;20261;-80
2022/04/15 02:25:22;;;;;;;11.63;11.23;;;11.90;99.90;;;;;;5084092;28;20230;-80
2022/04/15 02:27:50;;;;;;;11.50;11.10;;;11.80;99.90;;;;;;5084484;28;20230;-80
2022/04/15 02:30:18;;;;;;;11.53;11.13;;;11.80;99.90;;;;;;5084004;28;20295;-80
2022/04/15 02:32:47;;;;;;;11.57;11.17;;;11.70;99.90;;;;;;5083085;28;20226;-80
2022/04/15 02:35:15;;;;;;;11.70;11.30;;;11.70;99.90;;;;;;5083099;28;20222;-80
2022/04/15 02:37:43;;;;;;;11.80;11.40;;;11.70;99.90;;;;;;5084035;28;20238;-79
2022/04/15 02:40:12;;;;;;;11.60;11.20;;;11.60;99.90;;;;;;5084947;28;20230;-80
2022/04/15 02:42:40;;;;;;;11.60;11.20;;;11.60;99.90;;;;;;5083164;28;20288;-79
2022/04/15 02:45:10;;;;;;;11.63;11.23;;;11.50;99.90;;;;;;5082851;28;20346;-80
2022/04/15 02:47:38;;;;;;;11.60;11.20;;;11.40;99.90;;;;;;5082396;28;20284;-80
2022/04/15 02:50:08;;;;;;;11.73;11.33;;;11.40;99.90;;;;;;5082427;28;20253;-80
2022/04/15 02:52:36;;;;;;;11.57;11.17;;;11.40;99.90;;;;;;5082960;28;20230;-79
2022/04/15 02:55:05;;;;;;;11.80;11.40;;;11.40;99.90;;;;;;5089584;28;20222;-79
2022/04/15 02:57:33;;;;;;;11.90;11.50;;;11.40;99.90;;;;;;5091803;28;20286;-79
2022/04/15 03:00:01;;;;;;;11.70;11.30;;;11.40;99.90;;;;;;5091657;28;20241;-80
2022/04/15 03:02:29;;;;;;;11.73;11.33;;;11.40;99.90;;;;;;5090935;28;20234;-80
2022/04/15 03:04:56;;;;;;;11.90;11.50;;;11.40;99.90;;;;;;5085830;28;20238;-80
2022/04/15 03:07:26;;;;;;;11.70;11.30;;;11.30;99.90;;;;;;5082210;28;20230;-80
2022/04/15 03:09:54;;;;;;;11.70;11.30;;;11.30;99.90;;;;;;5081898;28;20246;-81
2022/04/15 03:12:22;;;;;;;11.70;11.30;;;11.30;99.90;;;;;;5081248;28;20256;-80
2022/04/15 03:14:53;;;;;;;11.60;11.20;;;11.30;99.90;;;;;;5081194;28;20251;-80
2022/04/15 03:17:20;;;;;;;11.50;11.10;;;11.20;99.90;;;;;;5081068;28;20325;-80
2022/04/15 03:19:48;;;;;;;11.70;11.30;;;11.20;99.90;;;;;;5081599;28;20256;-80
2022/04/15 03:22:18;;;;;;;11.53;11.13;;;11.20;99.90;;;;;;5087406;28;20300;-81
2022/04/15 03:24:48;;;;;;;11.90;11.50;;;11.10;99.90;;;;;;5081348;28;20317;-80
2022/04/15 03:27:16;;;;;;;11.70;11.30;;;11.10;99.90;;;;;;5080744;28;20248;-80
2022/04/15 03:29:44;;;;;;;11.63;11.23;;;11.10;99.90;;;;;;5081289;28;20222;-80
2022/04/15 03:32:12;;;;;;;11.97;11.57;;;11.10;99.90;;;;;;5081499;28;20253;-80
2022/04/15 03:34:40;;;;;;;11.67;11.27;;;11.00;99.90;;;;;;5081183;28;20218;-79
2022/04/15 03:37:08;;;;;;;11.90;11.50;;;11.00;99.90;;;;;;5080345;28;20229;-80
2022/04/15 03:39:36;;;;;;;11.70;11.30;;;11.00;99.90;;;;;;5081002;28;20296;-80
2022/04/15 03:42:07;;;;;;;11.47;11.07;;;11.00;99.90;;;;;;5079808;28;20234;-80
2022/04/15 03:44:34;;;;;;;11.80;11.40;;;10.90;99.90;;;;;;5080582;28;20238;-80
2022/04/15 03:47:02;;;;;;;11.63;11.23;;;10.80;99.90;;;;;;5080683;28;20230;-80
2022/04/15 03:49:30;;;;;;;11.60;11.20;;;10.70;99.90;;;;;;5080671;28;20230;-80
2022/04/15 03:51:58;;;;;;;11.90;11.50;;;10.70;99.90;;;;;;5080330;28;20292;-79
2022/04/15 03:54:25;;;;;;;11.80;11.40;;;10.60;99.90;;;;;;5080309;28;20238;-80
2022/04/15 03:56:53;;;;;;;11.77;11.37;;;10.50;99.90;;;;;;5080504;28;20252;-80
2022/04/15 03:59:22;;;;;;;11.70;11.30;;;10.50;99.90;;;;;;5080257;28;20230;-80
2022/04/15 04:01:50;;;;;;;11.60;11.20;;;10.50;99.90;;;;;;5080101;28;20272;-80
2022/04/15 04:04:18;;;;;;;11.63;11.23;;;10.40;99.90;;;;;;5079658;28;20230;-80
2022/04/15 04:06:45;;;;;;;11.90;11.50;;;10.40;99.90;;;;;;5080402;28;20230;-80
2022/04/15 04:09:13;;;;;;;11.70;11.30;;;10.40;99.90;;;;;;5082975;28;20230;-80
2022/04/15 04:11:41;;;;;;;11.73;11.33;;;10.30;99.90;;;;;;5084884;28;20281;-81
2022/04/15 04:14:08;;;;;;;11.90;11.50;;;10.30;99.90;;;;;;5085713;28;20222;-80
2022/04/15 04:16:38;;;;;;;11.90;11.50;;;10.20;99.90;;;;;;5084767;28;20296;-80
2022/04/15 04:19:05;;;;;;;11.90;11.50;;;10.10;99.90;;;;;;5081751;28;20230;-80
2022/04/15 04:21:33;;;;;;;11.90;11.50;;;10.10;99.90;;;;;;5079690;28;20249;-80
2022/04/15 04:24:01;;;;;;;12.00;11.60;;;10.10;99.90;;;;;;5080356;28;20219;-80
2022/04/15 04:26:29;;;;;;;11.90;11.50;;;10.10;99.90;;;;;;5080990;28;20238;-80
2022/04/15 04:28:56;;;;;;;11.90;11.50;;;10.10;99.90;;;;;;5081431;28;20233;-79
2022/04/15 04:31:24;;;;;;;11.90;11.50;;;10.00;99.90;;;;;;5095297;28;21054;-80
2022/04/15 04:33:53;;;;;;;12.23;11.83;;;10.00;99.90;;;;;;5097692;28;20222;-80
2022/04/15 04:36:21;;;;;;;12.00;11.60;;;10.00;99.90;;;;;;5086505;28;20230;-80
2022/04/15 04:38:48;;;;;;;11.67;11.27;;;9.90;99.90;;;;;;5080135;28;20261;-80
2022/04/15 04:41:16;;;;;;;11.87;11.47;;;9.90;99.90;;;;;;5079438;28;20237;-80
2022/04/15 04:43:44;;;;;;;11.83;11.43;;;9.90;99.90;;;;;;5079877;28;20230;-80
2022/04/15 04:46:12;;;;;;;12.20;11.80;;;9.90;99.90;;;;;;5079930;28;20226;-80
2022/04/15 04:48:40;;;;;;;11.90;11.50;;;9.90;99.90;;;;;;5079028;28;20231;-80
2022/04/15 04:51:09;;;;;;;11.90;11.50;;;9.90;99.90;;;;;;5078474;28;20237;-80
2022/04/15 04:53:37;;;;;;;11.60;11.20;;;9.90;99.90;;;;;;5078760;28;20237;-80
2022/04/15 04:56:06;;;;;;;12.00;11.60;;;9.90;99.90;;;;;;5078748;28;20218;-80
2022/04/15 04:58:34;;;;;;;11.63;11.23;;;9.90;99.90;;;;;;5078392;28;20233;-79
2022/04/15 05:01:01;;;;;;;11.70;11.30;;;9.90;99.90;;;;;;5078609;28;20332;-80
2022/04/15 05:03:29;;;;;;;11.73;11.33;;;9.90;99.90;;;;;;5078888;28;20234;-80
2022/04/15 05:05:57;;;;;;;11.87;11.47;;;9.90;99.90;;;;;;5079095;28;20226;-80
2022/04/15 05:08:26;;;;;;;12.00;11.60;;;9.90;99.90;;;;;;5078822;28;20234;-79
2022/04/15 05:10:54;;;;;;;11.80;11.40;;;9.90;99.90;;;;;;5078414;28;20311;-80
2022/04/15 05:13:22;;;;;;;12.00;11.60;;;9.90;99.90;;;;;;5078747;28;20230;-80
2022/04/15 05:15:49;;;;;;;12.03;11.63;;;9.90;99.90;;;;;;5078079;28;20238;-80
2022/04/15 05:18:17;;;;;;;11.97;11.57;;;9.90;99.90;;;;;;5078719;28;20234;-80
2022/04/15 05:20:45;;;;;;;11.90;11.50;;;9.90;99.90;;;;;;5079769;28;20230;-81
2022/04/15 05:23:14;;;;;;;11.83;11.43;;;9.90;99.90;;;;;;5090094;28;21157;-81
2022/04/15 05:25:43;;;;;;;12.00;11.60;;;10.00;99.90;;;;;;5080094;28;20288;-81
2022/04/15 05:28:11;;;;;;;11.87;11.47;;;10.00;99.90;;;;;;5079652;28;20241;-80
2022/04/15 05:30:38;;;;;;;11.90;11.50;;;10.10;99.90;;;;;;5079682;28;20252;-81
2022/04/15 05:33:06;;;;;;;11.67;11.27;;;10.10;99.90;;;;;;5080050;28;20272;-81
2022/04/15 05:35:33;;;;;;;11.77;11.37;;;10.20;99.90;;;;;;5079362;28;20222;-80
2022/04/15 05:38:01;;;;;;;11.80;11.40;;;10.30;99.90;;;;;;5098142;22;20249;-81
2022/04/15 05:40:29;;;;;;;11.40;11.00;;;10.30;99.90;;;;;;5080491;28;20256;-81
2022/04/15 05:43:05;;;;;;;11.70;11.30;;;10.30;99.90;;;;;;5060849;28;20245;-81
2022/04/15 05:45:33;;;;;;;12.03;11.63;;;10.40;99.90;;;;;;5073381;28;20216;-81
2022/04/15 05:48:02;;;;;;;11.63;11.23;;;10.50;99.90;;;;;;5079557;28;20721;-81
2022/04/15 05:50:32;;;;;;;11.43;11.03;;;10.40;99.90;;;;;;5073416;28;20229;-81
2022/04/15 05:53:01;;;;;;;11.60;11.20;;;10.50;99.90;;;;;;5084224;28;20222;-81
2022/04/15 05:55:35;;;;;;;11.60;11.20;;;10.50;99.90;;;;;;5085690;28;20226;-83
2022/04/15 05:58:05;;;;;;;11.70;11.30;;;10.50;99.90;;;;;;5085609;28;20237;-84
2022/04/15 06:00:40;;;;;;;11.60;11.20;;;10.50;99.90;;;;;;5084888;28;20231;-85
2022/04/15 06:03:10;;;;;;;12.02;11.63;;;10.60;99.90;;;;;;5082671;28;20421;-86
2022/04/15 06:05:39;;;;;;;11.93;11.53;;;10.70;99.90;;;;;;5083325;28;20230;-86
2022/04/15 06:08:09;;;;;;;11.93;11.53;;;10.90;99.90;;;;;;5066135;28;20235;-87
2022/04/15 06:10:39;;;;;;;12.13;11.73;;;10.90;99.90;;;;;;5064821;28;20293;-88
2022/04/15 06:13:13;;;;;;;11.77;11.37;;;11.00;99.90;;;;;;5064491;28;20722;-85
2022/04/15 06:15:51;;;;;;;12.00;11.60;;;11.00;99.90;;;;;;5064821;28;20289;-85
2022/04/15 06:18:24;;;;;;;11.90;11.50;;;11.10;99.90;;;;;;5065649;28;20231;-86
2022/04/15 06:20:53;;;;;;;12.00;11.60;;;11.00;99.90;;;;;;5065969;28;20227;-88
2022/04/15 06:23:22;;;;;;;11.93;11.53;;;10.90;99.90;;;;;;5065281;28;20301;-87
2022/04/15 06:25:52;;;;;;;11.83;11.43;;;10.80;99.90;;;;;;5074169;28;20293;-87
2022/04/15 06:28:31;;;;;;;11.70;11.30;;;10.90;99.90;;;;;;5065044;28;20289;-88
2022/04/15 06:31:08;;;;;;;11.77;11.37;;;11.00;99.90;;;;;;5065115;28;20241;-84
2022/04/15 06:33:38;;;;;;;11.60;11.20;;;11.00;99.90;;;;;;5078995;28;20222;-87
2022/04/15 06:36:07;;;;;;;12.07;11.67;;;11.20;99.90;;;;;;5076266;28;20226;-87
2022/04/15 06:38:36;;;;;;;11.53;11.13;;;11.40;99.90;;;;;;5084964;28;20238;-87
2022/04/15 06:41:06;;;;;;;11.80;11.40;;;11.70;99.90;;;;;;5079236;28;20242;-86
2022/04/15 06:43:45;;;;;;;11.67;11.27;;;11.90;99.90;;;;;;5073340;28;20311;-87
2022/04/15 06:46:14;;;;;;;11.73;11.33;;;12.00;99.90;;;;;;5084843;28;20213;-87
2022/04/15 06:48:45;;;;;;;11.90;11.50;;;12.10;99.90;;;;;;5084604;28;20229;-88
2022/04/15 06:51:12;;;;;;;11.73;11.33;;;12.20;99.90;;;;;;5084497;28;20226;-87
2022/04/15 06:53:43;;;;;;;11.60;11.20;;;12.30;99.90;;;;;;5084313;28;20230;-87
2022/04/15 06:56:14;;;;;;;11.67;11.27;;;12.40;99.90;;;;;;5084112;28;20273;-87
2022/04/15 06:58:44;;;;;;;11.50;11.10;;;12.50;99.90;;;;;;5085843;28;20283;-86
2022/04/15 07:01:12;;;;;;;11.53;11.13;;;12.60;99.90;;;;;;5084889;28;20245;-87
2022/04/15 07:03:40;;;;;;;11.60;11.20;;;12.70;99.90;;;;;;5086098;28;20242;-87
2022/04/15 07:06:09;;;;;;;11.50;11.10;;;12.70;99.90;;;;;;5084744;28;20230;-87
2022/04/15 07:08:39;;;;;;;11.40;11.00;;;12.70;99.90;;;;;;5084965;28;20237;-87
2022/04/15 07:11:08;;;;;;;11.50;11.10;;;12.80;99.90;;;;;;5085748;28;20234;-86
2022/04/15 07:13:38;;;;;;;11.17;10.87;;;12.90;99.90;;;;;;5099986;28;20226;-86
2022/04/15 07:16:17;;;;;;;11.23;10.90;;;13.00;99.90;;;;;;5094198;28;20234;-86
2022/04/15 07:18:46;;;;;;;11.20;10.90;;;13.10;99.90;;;;;;5084714;28;20292;-86
2022/04/15 07:21:16;;;;;;;10.90;10.60;;;13.30;99.90;;;;;;5084968;28;20234;-86
2022/04/15 07:23:44;;;;;;;10.90;10.60;;;13.50;99.90;;;;;;5084723;28;20218;-86
2022/04/15 07:26:13;;;;;;;11.27;10.97;;;13.50;99.90;;;;;;5084800;28;20215;-85
2022/04/15 07:28:44;;;;;;;11.50;11.10;;;13.60;99.90;;;;;;5096287;28;20256;-85
2022/04/15 07:31:15;;;;;;;11.00;10.70;;;13.60;99.90;;;;;;5098579;28;20280;-87
2022/04/15 07:33:43;;;;;;;11.63;11.23;;;13.60;99.90;;;;;;5094573;28;20253;-84
2022/04/15 07:38:52;;;;;;;11.00;10.70;;;13.70;99.90;;;;;;5084515;28;20226;-85
2022/04/15 07:41:21;;;;;;;11.00;10.70;;;13.80;99.90;;;;;;5085344;28;20238;-86
2022/04/15 07:43:49;;;;;;;11.10;10.80;;;13.90;99.90;;;;;;5083866;28;20296;-85
2022/04/15 07:46:27;;;;;;;10.67;10.37;;;14.10;99.90;;;;;;5083280;28;20217;-86
2022/04/15 07:49:01;;;;;;;10.77;10.47;;;14.10;99.90;;;;;;5082354;28;20280;-86
2022/04/15 07:51:54;;;;;;;10.40;10.10;;;14.30;99.90;;;;;;5083370;28;20230;-86
2022/04/15 07:54:25;;;;;;;10.25;9.95;;;14.30;99.90;;;;;;5088226;28;20214;-83
2022/04/15 07:57:30;;;;;;;10.13;9.82;;;14.30;99.90;;;;;;5082744;28;20250;-88
2022/04/15 07:59:58;;;;;;;10.10;9.80;;;14.20;99.90;;;;;;5082242;28;20242;-85
2022/04/15 08:02:29;;;;;;;10.50;10.20;;;14.30;99.90;;;;;;5083577;28;20234;-87
2022/04/15 08:04:57;;;;;;;10.30;10.00;;;14.60;99.90;;;;;;5085289;28;20296;-86
2022/04/15 08:07:25;;;;;;;10.40;10.10;;;14.80;99.90;;;;;;5081700;28;20256;-87
2022/04/15 08:12:42;;;;;;;10.30;10.00;;;15.00;99.90;;;;;;5082772;28;20228;-88
2022/04/15 08:15:15;;;;;;;10.02;9.73;;;15.20;99.90;;;;;;5083054;28;20230;-86
2022/04/15 08:17:50;;;;;;;9.90;9.60;;;15.30;99.90;;;;;;5083986;28;20272;-86
2022/04/15 08:20:31;;;;;;;10.10;9.80;;;15.50;99.90;;;;;;5082938;28;20226;-91
2022/04/15 08:26:04;;;;;;;9.98;9.68;;;15.90;99.90;;;;;;5084910;28;20218;-92
2022/04/15 08:28:36;;;;;;;9.90;9.60;;;15.90;99.90;;;;;;5084342;28;20213;-91
2022/04/15 08:31:12;;;;;;;9.98;9.68;;;16.10;99.90;;;;;;5068727;28;20231;-91
2022/04/15 08:33:55;;;;;;;10.07;9.77;;;16.40;99.90;;;;;;5087956;28;20283;-91
2022/04/15 08:36:30;;;;;;;10.38;10.07;;;16.50;99.90;;;;;;5085043;28;20234;-91
2022/04/15 08:39:05;;;;;;;10.00;9.70;;;16.40;99.90;;;;;;5075997;28;20230;-92
2022/04/15 08:41:44;;;;;;;10.00;9.70;;;16.40;99.90;;;;;;5065362;28;20359;-91
2022/04/15 08:44:21;;;;;;;10.00;9.70;;;16.50;99.90;;;;;;5074198;28;20219;-89
2022/04/15 08:50:23;;;;;;;9.95;9.65;;;16.60;99.90;;;;;;5062115;28;20230;-91
2022/04/15 08:58:55;;;;;;;9.80;9.50;;;16.80;99.90;;;;;;5062049;28;20233;-91
2022/04/15 09:01:31;;;;;;;9.60;9.30;;;16.70;99.90;;;;;;5066108;28;20241;-90
2022/04/15 09:04:01;;;;;;;9.75;9.45;;;16.60;99.90;;;;;;5062532;28;20234;-90
2022/04/15 09:06:38;;;;;;;9.77;9.48;;;16.70;99.90;;;;;;5062643;28;20231;-90
2022/04/15 09:09:12;;;;;;;10.20;9.90;;;16.90;99.90;;;;;;5064212;28;20227;-89
2022/04/15 09:11:47;;;;;;;9.80;9.50;;;17.00;99.90;;;;;;5063467;28;20223;-90
2022/04/15 09:14:18;;;;;;;9.85;9.55;;;17.20;99.90;;;;;;5066557;28;20253;-90
2022/04/15 09:16:54;;;;;;;10.00;9.70;;;17.10;99.90;;;;;;5062799;28;20265;-90
2022/04/15 09:19:23;;;;;;;10.00;9.70;;;17.10;99.90;;;;;;5060644;28;20318;-90
2022/04/15 09:22:00;;;;;;;10.40;10.10;;;17.20;99.90;;;;;;5061240;28;20227;-90
2022/04/15 09:24:31;;;;;;;10.48;10.18;;;17.20;99.90;;;;;;5061951;28;20265;-90
2022/04/15 09:27:09;;;;;;;10.27;9.98;;;17.50;99.90;;;;;;5076215;28;20237;-91
2022/04/15 09:29:48;;;;;;;10.63;10.32;;;17.60;99.90;;;;;;5077247;28;20221;-91
2022/04/15 09:32:26;;;;;;;10.38;10.07;;;17.80;99.90;;;;;;5076226;28;20266;-91
2022/04/15 09:37:52;;;;;;;10.27;9.98;;;18.10;99.90;;;;;;5063127;28;20234;-90
2022/04/15 09:40:37;;;;;;;10.40;10.10;;;18.10;99.90;;;;;;5065683;28;20238;-90
2022/04/15 09:43:07;;;;;;;10.50;10.20;;;18.30;99.90;;;;;;5063189;28;20254;-90
2022/04/15 09:46:11;;;;;;;10.30;10.00;;;18.30;99.90;;;;;;5064801;28;20309;-91
2022/04/15 09:51:45;;;;;;;10.52;10.23;;;18.50;99.90;;;;;;5062940;28;20225;-84
2022/04/15 10:17:35;;;;;;;10.55;10.25;;;19.30;99.90;;;;;;4999475;28;20228;-83
2022/04/15 10:46:19;;;;;;;10.40;10.10;;;18.80;99.90;;;;;;4892255;29;20244;-93
2022/04/15 10:48:48;;;;;;;10.25;9.95;;;19.20;99.90;;;;;;5000078;28;20269;-91
2022/04/15 10:51:35;;;;;;;10.35;10.05;;;19.00;99.90;;;;;;5026659;28;20254;-90
2022/04/15 10:54:38;;;;;;;10.15;9.85;;;18.80;99.90;;;;;;5068079;28;20246;-92
2022/04/15 10:57:17;;;;;;;10.40;10.10;;;18.70;99.90;;;;;;5066570;28;20238;-91
2022/04/15 11:40:46;;;;;;;11.10;10.80;;;19.60;99.90;;;;;;5092536;22;20231;-81
2022/04/15 11:43:14;;;;;;;10.77;10.48;;;19.40;99.90;;;;;;5070925;28;20321;-80
2022/04/15 11:45:44;;;;;;;11.00;10.70;;;19.50;99.90;;;;;;5062722;28;20231;-81
2022/04/15 11:48:22;;;;;;;10.80;10.50;;;20.10;99.90;;;;;;5046789;28;20244;-81
2022/04/15 11:50:53;;;;;;;10.90;10.60;;;20.70;99.90;;;;;;5022069;28;20228;-82
2022/04/15 11:53:22;;;;;;;10.93;10.63;;;20.60;99.90;;;;;;5022589;28;20263;-79
2022/04/15 11:55:58;;;;;;;10.85;10.55;;;20.10;99.90;;;;;;5020508;28;20236;-79
2022/04/15 11:58:33;;;;;;;10.90;10.60;;;19.90;99.90;;;;;;5021052;28;20239;-80
2022/04/15 12:01:02;;;;;;;11.00;10.70;;;19.80;99.90;;;;;;5033387;28;20230;-80
2022/04/15 12:03:30;;;;;;;10.85;10.55;;;19.70;99.90;;;;;;5040581;28;20293;-80
2022/04/15 12:05:59;;;;;;;11.00;10.70;;;20.00;99.90;;;;;;5040756;28;20286;-80
2022/04/15 12:08:27;;;;;;;11.45;11.07;;;20.20;99.90;;;;;;5043309;28;20203;-79
2022/04/15 12:10:57;;;;;;;11.10;10.80;;;20.60;99.90;;;;;;5044780;28;20216;-80
2022/04/15 12:13:25;;;;;;;11.20;10.90;;;20.60;99.90;;;;;;5045124;28;20283;-81
2022/04/15 12:15:53;;;;;;;11.15;10.85;;;20.60;99.90;;;;;;5042700;28;20289;-79
2022/04/15 12:18:21;;;;;;;10.88;10.57;;;21.00;99.90;;;;;;5041351;28;20290;-80
2022/04/15 12:20:49;;;;;;;10.80;10.50;;;21.10;99.90;;;;;;5039937;28;20242;-80
2022/04/15 12:23:16;;;;;;;10.48;10.18;;;20.80;99.90;;;;;;5041884;28;20243;-79
2022/04/15 12:26:07;;;;;;;10.60;10.30;;;20.10;99.90;;;;;;5040032;28;20297;-79
2022/04/15 12:31:31;;;;;;;10.50;10.20;;;19.60;99.90;;;;;;5021603;28;20221;-79
2022/04/15 12:34:00;;;;;;;10.63;10.32;;;20.00;99.90;;;;;;5019383;28;20243;-79
2022/04/15 12:36:43;;;;;;;10.73;10.43;;;20.80;99.90;;;;;;5019359;28;20232;-80
2022/04/15 12:39:11;;;;;;;10.80;10.50;;;21.10;99.90;;;;;;5019103;28;20252;-79
2022/04/15 12:41:45;;;;;;;10.68;10.38;;;21.30;99.90;;;;;;5020230;28;20262;-80
2022/04/15 12:44:20;;;;;;;10.70;10.40;;;21.20;99.90;;;;;;5019075;28;20243;-78
2022/04/15 12:46:49;;;;;;;10.63;10.32;;;20.80;99.90;;;;;;5017594;28;20244;-78
2022/04/15 12:49:29;;;;;;;10.80;10.50;;;20.70;99.90;;;;;;5018290;28;20263;-79
2022/04/15 12:52:10;;;;;;;10.77;10.48;;;20.70;99.90;;;;;;5015674;28;20316;-76
2022/04/15 12:55:00;;;;;;;10.88;10.57;;;21.00;99.90;;;;;;5029950;28;20230;-77
2022/04/15 12:57:33;;;;;;;11.00;10.70;;;21.30;99.90;;;;;;5034545;28;20235;-76
2022/04/15 13:00:03;;;;;;;10.88;10.57;;;21.90;99.90;;;;;;5034906;28;20231;-77
2022/04/15 13:02:32;;;;;;;10.90;10.60;;;22.30;99.90;;;;;;5035492;28;20247;-75
2022/04/15 13:05:00;;;;;;;10.90;10.60;;;21.50;99.90;;;;;;5034433;28;20298;-76
2022/04/15 13:07:27;;;;;;;11.25;10.95;;;21.00;99.90;;;;;;5034253;28;20259;-76
2022/04/15 13:09:55;;;;;;;11.10;10.80;;;21.50;99.90;;;;;;5034340;28;20235;-77
2022/04/15 13:12:24;;;;;;;10.90;10.60;;;22.20;99.90;;;;;;5035072;28;20232;-77
2022/04/15 13:14:53;;;;;;;10.90;10.60;;;22.30;99.90;;;;;;5034987;28;20231;-77
2022/04/15 13:17:22;;;;;;;10.60;10.30;;;22.40;99.90;;;;;;5035553;28;20245;-76
2022/04/15 13:19:50;;;;;;;10.57;10.27;;;21.70;99.90;;;;;;5035077;28;20266;-78
2022/04/15 13:22:18;;;;;;;10.65;10.35;;;21.50;99.90;;;;;;5034905;28;20227;-75
2022/04/15 13:24:46;;;;;;;10.80;10.50;;;22.00;99.90;;;;;;5035010;28;20318;-75
2022/04/15 13:27:14;;;;;;;10.60;10.30;;;22.40;99.90;;;;;;5034446;28;20324;-76
2022/04/15 13:29:41;;;;;;;10.60;10.30;;;22.70;99.90;;;;;;5034340;28;20239;-76
2022/04/15 13:32:10;;;;;;;10.80;10.50;;;22.70;99.90;;;;;;5034486;28;20247;-75
2022/04/15 13:34:40;;;;;;;10.70;10.40;;;22.40;99.90;;;;;;5034967;28;20235;-76
2022/04/15 13:37:09;;;;;;;10.80;10.50;;;21.70;99.90;;;;;;5034967;28;20250;-75
2022/04/15 13:39:37;;;;;;;10.70;10.40;;;21.40;99.90;;;;;;5033911;28;20240;-76
2022/04/15 13:42:08;;;;;;;11.00;10.70;;;21.20;99.90;;;;;;5035133;28;20262;-76
2022/04/15 13:44:36;;;;;;;10.80;10.50;;;21.20;99.90;;;;;;5034967;28;20286;-77
2022/04/15 13:47:04;;;;;;;10.70;10.40;;;21.50;99.90;;;;;;5035498;28;20277;-76
2022/04/15 13:49:33;;;;;;;10.50;10.20;;;21.30;99.90;;;;;;5034547;28;20267;-76
2022/04/15 13:56:34;;;;;;;10.68;10.38;;;21.90;99.90;;;;;;5034403;28;20238;-76
2022/04/15 13:57:37;;;;;;;10.45;10.15;;;23.20;99.90;;;;;;5034774;28;20247;-77
2022/04/15 14:00:08;;;;;;;10.27;9.98;;;23.40;99.90;;;;;;5034473;28;20241;-76
2022/04/15 14:02:36;;;;;;;10.60;10.30;;;23.60;99.90;;;;;;5034773;28;20323;-76
2022/04/15 14:05:05;;;;;;;10.60;10.30;;;23.40;99.90;;;;;;5034679;28;20265;-76
2022/04/15 14:07:34;;;;;;;10.63;10.32;;;23.10;99.90;;;;;;5038141;28;20231;-76
2022/04/15 14:10:02;;;;;;;10.68;10.38;;;22.80;99.90;;;;;;5022853;28;20298;-75
2022/04/15 14:12:30;;;;;;;10.48;10.18;;;22.90;99.90;;;;;;5037193;28;20227;-76
2022/04/15 14:14:58;;;;;;;10.60;10.30;;;22.70;99.90;;;;;;5018963;28;20232;-78
2022/04/15 14:17:26;;;;;;;10.68;10.38;;;23.20;99.90;;;;;;5031964;28;20258;-78
2022/04/15 14:19:53;;;;;;;10.77;10.48;;;23.70;99.90;;;;;;5026435;28;20240;-77
2022/04/15 14:22:21;;;;;;;10.82;10.52;;;23.80;99.90;;;;;;5018142;28;20267;-78
2022/04/15 14:24:50;;;;;;;10.82;10.52;;;24.10;99.90;;;;;;5019011;28;20240;-78
2022/04/15 14:27:18;;;;;;;10.73;10.43;;;24.00;99.90;;;;;;5037841;28;20266;-77
2022/04/15 14:29:47;;;;;;;10.80;10.50;;;24.20;99.90;;;;;;5037982;28;20239;-77
2022/04/15 14:32:14;;;;;;;10.50;10.20;;;24.40;99.90;;;;;;5038398;28;20230;-78
2022/04/15 14:34:42;;;;;;;11.07;10.77;;;24.70;99.90;;;;;;5038745;28;20262;-78
2022/04/15 14:37:10;;;;;;;10.80;10.50;;;24.80;99.90;;;;;;5057283;28;20231;-78
2022/04/15 14:39:37;;;;;;;10.60;10.30;;;24.60;99.90;;;;;;5057881;28;20231;-76
2022/04/15 14:42:06;;;;;;;10.60;10.30;;;24.10;99.90;;;;;;5038645;28;20227;-77
2022/04/15 14:44:34;;;;;;;11.10;10.80;;;23.90;99.90;;;;;;5038466;28;20275;-78